sensor_id;sensor_type;location;lat;lon;timestamp;temperature;humidity
49379;DHT22;35254;47.990;-1.608;2023-05-02T00:01:39;20.30;61.60
49379;DHT22;35254;47.990;-1.608;2023-05-02T00:04:06;20.30;61.60
49379;DHT22;35254;47.990;-1.608;2023-05-02T00:06:31;20.30;61.60
49379;DHT22;35254;47.990;-1.608;2023-05-02T00:08:57;20.30;61.60
49379;DHT22;35254;47.990;-1.608;2023-05-02T00:11:23;20.30;61.60
49379;DHT22;35254;47.990;-1.608;2023-05-02T00:13:49;20.30;61.50
49379;DHT22;35254;47.990;-1.608;2023-05-02T00:16:14;20.30;61.40
49379;DHT22;35254;47.990;-1.608;2023-05-02T00:18:40;20.30;61.40
49379;DHT22;35254;47.990;-1.608;2023-05-02T00:21:06;20.30;61.50
49379;DHT22;35254;47.990;-1.608;2023-05-02T00:23:32;20.30;61.40
49379;DHT22;35254;47.990;-1.608;2023-05-02T00:25:58;20.20;61.30
49379;DHT22;35254;47.990;-1.608;2023-05-02T00:28:24;20.30;61.70
49379;DHT22;35254;47.990;-1.608;2023-05-02T00:30:51;20.20;61.90
49379;DHT22;35254;47.990;-1.608;2023-05-02T00:33:17;20.30;61.80
49379;DHT22;35254;47.990;-1.608;2023-05-02T00:35:43;20.20;61.90
49379;DHT22;35254;47.990;-1.608;2023-05-02T00:38:09;20.20;62.00
49379;DHT22;35254;47.990;-1.608;2023-05-02T00:40:48;20.20;62.00
49379;DHT22;35254;47.990;-1.608;2023-05-02T00:43:16;20.20;62.00
49379;DHT22;35254;47.990;-1.608;2023-05-02T00:45:43;20.20;61.90
49379;DHT22;35254;47.990;-1.608;2023-05-02T00:48:10;20.20;61.80
49379;DHT22;35254;47.990;-1.608;2023-05-02T00:50:41;20.20;61.70
49379;DHT22;35254;47.990;-1.608;2023-05-02T00:53:08;20.20;61.60
49379;DHT22;35254;47.990;-1.608;2023-05-02T00:55:35;20.20;61.50
49379;DHT22;35254;47.990;-1.608;2023-05-02T00:58:04;20.20;61.50
49379;DHT22;35254;47.990;-1.608;2023-05-02T01:09:35;20.20;61.40
49379;DHT22;35254;47.990;-1.608;2023-05-02T01:14:47;20.20;61.10
49379;DHT22;35254;47.990;-1.608;2023-05-02T01:17:16;20.20;61.20
49379;DHT22;35254;47.990;-1.608;2023-05-02T01:19:53;20.20;61.10
49379;DHT22;35254;47.990;-1.608;2023-05-02T01:22:20;20.20;61.20
49379;DHT22;35254;47.990;-1.608;2023-05-02T01:29:59;20.20;61.40
49379;DHT22;35254;47.990;-1.608;2023-05-02T01:32:27;20.20;61.30
49379;DHT22;35254;47.990;-1.608;2023-05-02T01:34:56;20.20;61.50
49379;DHT22;35254;47.990;-1.608;2023-05-02T01:37:23;20.20;61.40
49379;DHT22;35254;47.990;-1.608;2023-05-02T01:39:51;20.20;61.50
49379;DHT22;35254;47.990;-1.608;2023-05-02T01:42:19;20.20;61.50
49379;DHT22;35254;47.990;-1.608;2023-05-02T01:44:46;20.20;61.30
49379;DHT22;35254;47.990;-1.608;2023-05-02T01:47:12;20.20;61.20
49379;DHT22;35254;47.990;-1.608;2023-05-02T01:49:40;20.10;61.00
49379;DHT22;35254;47.990;-1.608;2023-05-02T01:52:10;20.20;61.10
49379;DHT22;35254;47.990;-1.608;2023-05-02T01:54:37;20.20;61.00
49379;DHT22;35254;47.990;-1.608;2023-05-02T01:57:06;20.20;61.00
49379;DHT22;35254;47.990;-1.608;2023-05-02T01:59:33;20.10;61.00
49379;DHT22;35254;47.990;-1.608;2023-05-02T02:02:01;20.20;60.90
49379;DHT22;35254;47.990;-1.608;2023-05-02T02:04:27;20.10;60.90
49379;DHT22;35254;47.990;-1.608;2023-05-02T02:07:06;20.10;60.80
49379;DHT22;35254;47.990;-1.608;2023-05-02T02:09:33;20.10;60.80
49379;DHT22;35254;47.990;-1.608;2023-05-02T02:12:11;20.10;60.80
49379;DHT22;35254;47.990;-1.608;2023-05-02T02:14:44;20.10;60.80
49379;DHT22;35254;47.990;-1.608;2023-05-02T02:17:14;20.10;60.70
49379;DHT22;35254;47.990;-1.608;2023-05-02T02:19:41;20.10;60.70
49379;DHT22;35254;47.990;-1.608;2023-05-02T02:22:09;20.10;60.70
49379;DHT22;35254;47.990;-1.608;2023-05-02T02:24:38;20.10;60.70
49379;DHT22;35254;47.990;-1.608;2023-05-02T02:27:04;20.10;60.80
49379;DHT22;35254;47.990;-1.608;2023-05-02T02:29:30;20.00;60.80
49379;DHT22;35254;47.990;-1.608;2023-05-02T02:31:56;20.10;60.80
49379;DHT22;35254;47.990;-1.608;2023-05-02T02:34:21;20.10;60.80
49379;DHT22;35254;47.990;-1.608;2023-05-02T02:40:02;20.00;60.90
49379;DHT22;35254;47.990;-1.608;2023-05-02T02:43:04;20.00;60.80
49379;DHT22;35254;47.990;-1.608;2023-05-02T02:48:24;20.10;60.80
49379;DHT22;35254;47.990;-1.608;2023-05-02T02:51:09;20.00;60.80
49379;DHT22;35254;47.990;-1.608;2023-05-02T02:56:37;20.00;60.90
49379;DHT22;35254;47.990;-1.608;2023-05-02T02:59:09;20.00;60.70
49379;DHT22;35254;47.990;-1.608;2023-05-02T03:01:39;20.00;60.90
49379;DHT22;35254;47.990;-1.608;2023-05-02T03:04:07;20.00;60.80
49379;DHT22;35254;47.990;-1.608;2023-05-02T03:06:34;20.00;60.80
49379;DHT22;35254;47.990;-1.608;2023-05-02T03:09:00;20.00;60.80
49379;DHT22;35254;47.990;-1.608;2023-05-02T03:11:26;19.90;60.70
49379;DHT22;35254;47.990;-1.608;2023-05-02T03:13:52;19.90;60.80
49379;DHT22;35254;47.990;-1.608;2023-05-02T03:18:58;20.00;60.70
49379;DHT22;35254;47.990;-1.608;2023-05-02T03:21:24;19.90;60.70
49379;DHT22;35254;47.990;-1.608;2023-05-02T03:23:50;20.00;60.70
49379;DHT22;35254;47.990;-1.608;2023-05-02T03:26:16;19.90;60.70
49379;DHT22;35254;47.990;-1.608;2023-05-02T03:28:41;19.90;60.80
49379;DHT22;35254;47.990;-1.608;2023-05-02T03:31:11;19.90;60.70
49379;DHT22;35254;47.990;-1.608;2023-05-02T03:33:36;19.90;60.90
49379;DHT22;35254;47.990;-1.608;2023-05-02T03:36:02;19.90;60.90
49379;DHT22;35254;47.990;-1.608;2023-05-02T03:38:31;19.90;60.90
49379;DHT22;35254;47.990;-1.608;2023-05-02T03:40:57;19.90;60.80
49379;DHT22;35254;47.990;-1.608;2023-05-02T03:43:23;19.90;60.90
49379;DHT22;35254;47.990;-1.608;2023-05-02T03:45:48;19.90;60.90
49379;DHT22;35254;47.990;-1.608;2023-05-02T03:48:14;19.90;60.90
49379;DHT22;35254;47.990;-1.608;2023-05-02T03:50:40;19.90;61.00
49379;DHT22;35254;47.990;-1.608;2023-05-02T03:53:05;19.90;60.80
49379;DHT22;35254;47.990;-1.608;2023-05-02T03:55:32;19.90;60.80
49379;DHT22;35254;47.990;-1.608;2023-05-02T03:58:03;19.90;60.70
49379;DHT22;35254;47.990;-1.608;2023-05-02T04:00:28;19.90;60.80
49379;DHT22;35254;47.990;-1.608;2023-05-02T04:02:55;19.90;60.80
49379;DHT22;35254;47.990;-1.608;2023-05-02T04:05:21;19.90;60.70
49379;DHT22;35254;47.990;-1.608;2023-05-02T04:07:46;19.80;60.60
49379;DHT22;35254;47.990;-1.608;2023-05-02T04:10:12;19.80;60.70
49379;DHT22;35254;47.990;-1.608;2023-05-02T04:12:41;19.80;60.70
49379;DHT22;35254;47.990;-1.608;2023-05-02T04:15:08;19.80;60.70
49379;DHT22;35254;47.990;-1.608;2023-05-02T04:17:34;19.80;60.60
49379;DHT22;35254;47.990;-1.608;2023-05-02T04:20:00;19.80;60.60
49379;DHT22;35254;47.990;-1.608;2023-05-02T04:22:26;19.80;60.60
49379;DHT22;35254;47.990;-1.608;2023-05-02T04:24:52;19.80;60.60
49379;DHT22;35254;47.990;-1.608;2023-05-02T04:27:18;19.80;60.60
49379;DHT22;35254;47.990;-1.608;2023-05-02T04:29:47;19.80;60.70
49379;DHT22;35254;47.990;-1.608;2023-05-02T04:32:13;19.80;60.70
49379;DHT22;35254;47.990;-1.608;2023-05-02T04:34:39;19.80;60.70
49379;DHT22;35254;47.990;-1.608;2023-05-02T04:37:05;19.80;60.70
49379;DHT22;35254;47.990;-1.608;2023-05-02T04:39:30;19.80;60.60
49379;DHT22;35254;47.990;-1.608;2023-05-02T04:41:56;19.80;60.70
49379;DHT22;35254;47.990;-1.608;2023-05-02T04:44:22;19.80;60.70
49379;DHT22;35254;47.990;-1.608;2023-05-02T04:46:47;19.70;60.70
49379;DHT22;35254;47.990;-1.608;2023-05-02T04:49:13;19.80;60.60
49379;DHT22;35254;47.990;-1.608;2023-05-02T04:51:38;19.80;60.60
49379;DHT22;35254;47.990;-1.608;2023-05-02T04:54:04;19.70;60.70
49379;DHT22;35254;47.990;-1.608;2023-05-02T04:56:30;19.70;60.70
49379;DHT22;35254;47.990;-1.608;2023-05-02T04:58:55;19.70;60.60
49379;DHT22;35254;47.990;-1.608;2023-05-02T05:01:21;19.70;60.50
49379;DHT22;35254;47.990;-1.608;2023-05-02T05:03:48;19.70;60.50
49379;DHT22;35254;47.990;-1.608;2023-05-02T05:06:14;19.70;60.60
49379;DHT22;35254;47.990;-1.608;2023-05-02T05:08:40;19.70;60.70
49379;DHT22;35254;47.990;-1.608;2023-05-02T05:11:05;19.70;60.70
49379;DHT22;35254;47.990;-1.608;2023-05-02T05:13:31;19.70;60.70
49379;DHT22;35254;47.990;-1.608;2023-05-02T05:15:57;19.70;60.60
49379;DHT22;35254;47.990;-1.608;2023-05-02T05:18:22;19.70;60.70
49379;DHT22;35254;47.990;-1.608;2023-05-02T05:20:48;19.70;60.70
49379;DHT22;35254;47.990;-1.608;2023-05-02T05:23:14;19.70;60.70
49379;DHT22;35254;47.990;-1.608;2023-05-02T05:25:40;19.70;60.70
49379;DHT22;35254;47.990;-1.608;2023-05-02T05:28:05;19.70;60.70
49379;DHT22;35254;47.990;-1.608;2023-05-02T05:30:31;19.70;60.60
49379;DHT22;35254;47.990;-1.608;2023-05-02T05:32:57;19.70;60.50
49379;DHT22;35254;47.990;-1.608;2023-05-02T05:35:23;19.70;60.70
49379;DHT22;35254;47.990;-1.608;2023-05-02T05:37:49;19.70;60.70
49379;DHT22;35254;47.990;-1.608;2023-05-02T05:40:15;19.70;60.80
49379;DHT22;35254;47.990;-1.608;2023-05-02T05:42:41;19.70;60.80
49379;DHT22;35254;47.990;-1.608;2023-05-02T05:45:07;19.70;60.90
49379;DHT22;35254;47.990;-1.608;2023-05-02T05:47:33;19.70;60.80
49379;DHT22;35254;47.990;-1.608;2023-05-02T05:49:59;19.70;60.90
49379;DHT22;35254;47.990;-1.608;2023-05-02T05:52:25;19.60;60.90
49379;DHT22;35254;47.990;-1.608;2023-05-02T05:54:54;19.70;60.90
49379;DHT22;35254;47.990;-1.608;2023-05-02T05:57:24;19.60;60.90
49379;DHT22;35254;47.990;-1.608;2023-05-02T05:59:49;19.60;61.00
49379;DHT22;35254;47.990;-1.608;2023-05-02T06:02:15;19.60;60.90
49379;DHT22;35254;47.990;-1.608;2023-05-02T06:04:41;19.60;60.90
49379;DHT22;35254;47.990;-1.608;2023-05-02T06:07:06;19.60;61.00
49379;DHT22;35254;47.990;-1.608;2023-05-02T06:09:32;19.70;61.10
49379;DHT22;35254;47.990;-1.608;2023-05-02T06:11:57;19.70;61.00
49379;DHT22;35254;47.990;-1.608;2023-05-02T06:14:23;19.60;61.20
49379;DHT22;35254;47.990;-1.608;2023-05-02T06:16:49;19.60;61.60
49379;DHT22;35254;47.990;-1.608;2023-05-02T06:19:14;19.60;62.10
49379;DHT22;35254;47.990;-1.608;2023-05-02T06:21:40;19.70;62.40
49379;DHT22;35254;47.990;-1.608;2023-05-02T06:24:06;19.60;62.50
49379;DHT22;35254;47.990;-1.608;2023-05-02T06:26:31;19.60;62.50
49379;DHT22;35254;47.990;-1.608;2023-05-02T06:28:57;19.60;62.30
49379;DHT22;35254;47.990;-1.608;2023-05-02T06:31:23;19.60;62.30
49379;DHT22;35254;47.990;-1.608;2023-05-02T06:33:48;19.60;62.30
49379;DHT22;35254;47.990;-1.608;2023-05-02T06:36:14;19.60;62.10
49379;DHT22;35254;47.990;-1.608;2023-05-02T06:38:40;19.60;62.40
49379;DHT22;35254;47.990;-1.608;2023-05-02T06:41:05;19.60;62.40
49379;DHT22;35254;47.990;-1.608;2023-05-02T06:43:31;19.60;62.30
49379;DHT22;35254;47.990;-1.608;2023-05-02T06:45:59;19.60;62.10
49379;DHT22;35254;47.990;-1.608;2023-05-02T06:48:25;19.60;62.00
49379;DHT22;35254;47.990;-1.608;2023-05-02T06:50:51;19.60;62.00
49379;DHT22;35254;47.990;-1.608;2023-05-02T06:53:20;19.60;62.00
49379;DHT22;35254;47.990;-1.608;2023-05-02T06:55:45;19.60;62.00
49379;DHT22;35254;47.990;-1.608;2023-05-02T06:58:12;19.60;62.00
49379;DHT22;35254;47.990;-1.608;2023-05-02T07:00:38;19.60;62.00
49379;DHT22;35254;47.990;-1.608;2023-05-02T07:03:04;19.70;62.10
49379;DHT22;35254;47.990;-1.608;2023-05-02T07:05:29;19.60;62.00
49379;DHT22;35254;47.990;-1.608;2023-05-02T07:07:55;19.70;61.90
49379;DHT22;35254;47.990;-1.608;2023-05-02T07:10:21;19.60;62.00
49379;DHT22;35254;47.990;-1.608;2023-05-02T07:12:47;19.70;62.00
49379;DHT22;35254;47.990;-1.608;2023-05-02T07:15:12;19.70;61.80
49379;DHT22;35254;47.990;-1.608;2023-05-02T07:17:38;19.70;62.10
49379;DHT22;35254;47.990;-1.608;2023-05-02T07:20:05;19.70;61.90
49379;DHT22;35254;47.990;-1.608;2023-05-02T07:22:32;19.70;62.10
49379;DHT22;35254;47.990;-1.608;2023-05-02T07:24:59;19.70;62.10
49379;DHT22;35254;47.990;-1.608;2023-05-02T07:27:25;19.70;62.00
49379;DHT22;35254;47.990;-1.608;2023-05-02T07:29:50;19.70;62.00
49379;DHT22;35254;47.990;-1.608;2023-05-02T07:32:16;19.70;62.00
49379;DHT22;35254;47.990;-1.608;2023-05-02T07:34:42;19.70;62.00
49379;DHT22;35254;47.990;-1.608;2023-05-02T07:37:08;19.70;62.00
49379;DHT22;35254;47.990;-1.608;2023-05-02T07:39:34;19.70;62.00
49379;DHT22;35254;47.990;-1.608;2023-05-02T07:41:59;19.70;62.10
49379;DHT22;35254;47.990;-1.608;2023-05-02T07:44:25;19.70;62.20
49379;DHT22;35254;47.990;-1.608;2023-05-02T07:46:51;19.70;62.10
49379;DHT22;35254;47.990;-1.608;2023-05-02T07:49:18;19.70;62.00
49379;DHT22;35254;47.990;-1.608;2023-05-02T07:51:43;19.70;61.90
49379;DHT22;35254;47.990;-1.608;2023-05-02T07:54:20;19.70;62.10
49379;DHT22;35254;47.990;-1.608;2023-05-02T07:56:46;19.70;61.80
49379;DHT22;35254;47.990;-1.608;2023-05-02T07:59:12;19.70;62.00
49379;DHT22;35254;47.990;-1.608;2023-05-02T08:01:39;19.70;62.10
49379;DHT22;35254;47.990;-1.608;2023-05-02T08:04:05;19.70;62.10
49379;DHT22;35254;47.990;-1.608;2023-05-02T08:06:31;19.70;62.10
49379;DHT22;35254;47.990;-1.608;2023-05-02T08:09:00;19.70;62.00
49379;DHT22;35254;47.990;-1.608;2023-05-02T08:11:25;19.70;61.90
49379;DHT22;35254;47.990;-1.608;2023-05-02T08:13:51;19.70;61.80
49379;DHT22;35254;47.990;-1.608;2023-05-02T08:16:18;19.80;61.70
49379;DHT22;35254;47.990;-1.608;2023-05-02T08:18:43;19.80;61.70
49379;DHT22;35254;47.990;-1.608;2023-05-02T08:21:09;19.90;61.50
49379;DHT22;35254;47.990;-1.608;2023-05-02T08:23:35;19.90;61.40
49379;DHT22;35254;47.990;-1.608;2023-05-02T08:26:02;19.90;61.30
49379;DHT22;35254;47.990;-1.608;2023-05-02T08:28:28;20.00;61.10
49379;DHT22;35254;47.990;-1.608;2023-05-02T08:30:54;20.00;61.00
49379;DHT22;35254;47.990;-1.608;2023-05-02T08:33:20;20.00;60.90
49379;DHT22;35254;47.990;-1.608;2023-05-02T08:35:45;20.10;60.90
49379;DHT22;35254;47.990;-1.608;2023-05-02T08:38:11;20.10;60.80
49379;DHT22;35254;47.990;-1.608;2023-05-02T08:40:37;20.10;60.80
49379;DHT22;35254;47.990;-1.608;2023-05-02T08:43:03;20.10;60.70
49379;DHT22;35254;47.990;-1.608;2023-05-02T08:45:39;20.20;60.60
49379;DHT22;35254;47.990;-1.608;2023-05-02T08:48:06;20.20;60.50
49379;DHT22;35254;47.990;-1.608;2023-05-02T08:50:44;20.20;60.50
49379;DHT22;35254;47.990;-1.608;2023-05-02T08:53:11;20.20;60.40
49379;DHT22;35254;47.990;-1.608;2023-05-02T08:55:39;20.20;60.50
49379;DHT22;35254;47.990;-1.608;2023-05-02T08:58:07;20.20;60.50
49379;DHT22;35254;47.990;-1.608;2023-05-02T09:00:37;20.20;60.50
49379;DHT22;35254;47.990;-1.608;2023-05-02T09:03:30;20.20;60.50
49379;DHT22;35254;47.990;-1.608;2023-05-02T09:06:25;20.20;60.50
49379;DHT22;35254;47.990;-1.608;2023-05-02T09:08:51;20.30;60.50
49379;DHT22;35254;47.990;-1.608;2023-05-02T09:11:18;20.30;60.50
49379;DHT22;35254;47.990;-1.608;2023-05-02T09:13:47;20.20;60.60
49379;DHT22;35254;47.990;-1.608;2023-05-02T09:16:16;20.20;60.60
49379;DHT22;35254;47.990;-1.608;2023-05-02T09:18:46;20.30;60.60
49379;DHT22;35254;47.990;-1.608;2023-05-02T09:21:14;20.30;60.60
49379;DHT22;35254;47.990;-1.608;2023-05-02T09:23:47;20.20;60.60
49379;DHT22;35254;47.990;-1.608;2023-05-02T09:28:48;20.30;60.60
49379;DHT22;35254;47.990;-1.608;2023-05-02T09:31:22;20.30;60.60
49379;DHT22;35254;47.990;-1.608;2023-05-02T09:33:50;20.20;60.60
49379;DHT22;35254;47.990;-1.608;2023-05-02T09:36:17;20.30;60.70
49379;DHT22;35254;47.990;-1.608;2023-05-02T09:38:45;20.30;60.70
49379;DHT22;35254;47.990;-1.608;2023-05-02T09:41:11;20.20;60.80
49379;DHT22;35254;47.990;-1.608;2023-05-02T09:43:38;20.20;60.80
49379;DHT22;35254;47.990;-1.608;2023-05-02T09:46:04;20.30;60.80
49379;DHT22;35254;47.990;-1.608;2023-05-02T09:48:33;20.30;60.80
49379;DHT22;35254;47.990;-1.608;2023-05-02T09:51:19;20.20;60.90
49379;DHT22;35254;47.990;-1.608;2023-05-02T09:53:45;20.20;60.90
49379;DHT22;35254;47.990;-1.608;2023-05-02T09:56:11;20.20;60.90
49379;DHT22;35254;47.990;-1.608;2023-05-02T09:58:36;20.30;60.90
49379;DHT22;35254;47.990;-1.608;2023-05-02T10:01:02;20.20;60.90
49379;DHT22;35254;47.990;-1.608;2023-05-02T10:03:28;20.30;60.90
49379;DHT22;35254;47.990;-1.608;2023-05-02T10:05:55;20.20;61.00
49379;DHT22;35254;47.990;-1.608;2023-05-02T10:08:24;20.20;61.10
49379;DHT22;35254;47.990;-1.608;2023-05-02T10:10:55;20.20;61.10
49379;DHT22;35254;47.990;-1.608;2023-05-02T10:13:23;20.20;61.00
49379;DHT22;35254;47.990;-1.608;2023-05-02T10:16:00;20.30;61.10
49379;DHT22;35254;47.990;-1.608;2023-05-02T10:21:04;20.30;61.10
49379;DHT22;35254;47.990;-1.608;2023-05-02T10:23:31;20.20;61.30
49379;DHT22;35254;47.990;-1.608;2023-05-02T10:25:57;20.30;61.40
49379;DHT22;35254;47.990;-1.608;2023-05-02T10:28:27;20.30;61.50
49379;DHT22;35254;47.990;-1.608;2023-05-02T10:30:53;20.30;61.40
49379;DHT22;35254;47.990;-1.608;2023-05-02T10:33:20;20.30;61.60
49379;DHT22;35254;47.990;-1.608;2023-05-02T10:35:46;20.30;61.20
49379;DHT22;35254;47.990;-1.608;2023-05-02T10:38:15;20.30;61.30
49379;DHT22;35254;47.990;-1.608;2023-05-02T10:40:41;20.40;61.30
49379;DHT22;35254;47.990;-1.608;2023-05-02T10:43:14;20.40;61.30
49379;DHT22;35254;47.990;-1.608;2023-05-02T10:45:41;20.40;61.50
49379;DHT22;35254;47.990;-1.608;2023-05-02T10:50:42;20.40;61.70
49379;DHT22;35254;47.990;-1.608;2023-05-02T10:53:32;20.40;61.70
49379;DHT22;35254;47.990;-1.608;2023-05-02T10:58:33;20.40;61.60
49379;DHT22;35254;47.990;-1.608;2023-05-02T11:04:09;20.50;61.70
49379;DHT22;35254;47.990;-1.608;2023-05-02T11:07:15;20.40;61.70
49379;DHT22;35254;47.990;-1.608;2023-05-02T11:11:49;20.50;61.80
49379;DHT22;35254;47.990;-1.608;2023-05-02T11:19:27;20.50;61.90
49379;DHT22;35254;47.990;-1.608;2023-05-02T11:24:51;20.50;62.00
49379;DHT22;35254;47.990;-1.608;2023-05-02T11:30:02;20.50;62.00
49379;DHT22;35254;47.990;-1.608;2023-05-02T11:35:21;20.50;62.00
49379;DHT22;35254;47.990;-1.608;2023-05-02T11:37:57;20.50;62.00
49379;DHT22;35254;47.990;-1.608;2023-05-02T11:40:24;20.50;62.00
49379;DHT22;35254;47.990;-1.608;2023-05-02T11:42:50;20.50;62.00
49379;DHT22;35254;47.990;-1.608;2023-05-02T11:45:16;20.50;62.00
49379;DHT22;35254;47.990;-1.608;2023-05-02T11:47:43;20.50;62.00
49379;DHT22;35254;47.990;-1.608;2023-05-02T11:50:11;20.50;62.00
49379;DHT22;35254;47.990;-1.608;2023-05-02T11:52:38;20.50;62.00
49379;DHT22;35254;47.990;-1.608;2023-05-02T11:55:09;20.50;62.00
49379;DHT22;35254;47.990;-1.608;2023-05-02T11:57:37;20.50;62.00
49379;DHT22;35254;47.990;-1.608;2023-05-02T12:00:03;20.50;62.00
49379;DHT22;35254;47.990;-1.608;2023-05-02T12:02:39;20.50;62.00
49379;DHT22;35254;47.990;-1.608;2023-05-02T12:05:06;20.50;61.90
49379;DHT22;35254;47.990;-1.608;2023-05-02T12:07:40;20.50;61.90
49379;DHT22;35254;47.990;-1.608;2023-05-02T12:10:07;20.60;61.80
49379;DHT22;35254;47.990;-1.608;2023-05-02T12:12:34;20.60;61.90
49379;DHT22;35254;47.990;-1.608;2023-05-02T12:15:07;20.60;61.90
49379;DHT22;35254;47.990;-1.608;2023-05-02T12:17:36;20.60;61.90
49379;DHT22;35254;47.990;-1.608;2023-05-02T12:20:04;20.60;61.80
49379;DHT22;35254;47.990;-1.608;2023-05-02T12:22:30;20.60;61.70
49379;DHT22;35254;47.990;-1.608;2023-05-02T12:24:56;20.60;61.90
49379;DHT22;35254;47.990;-1.608;2023-05-02T12:27:22;20.60;61.80
49379;DHT22;35254;47.990;-1.608;2023-05-02T12:29:48;20.70;61.80
49379;DHT22;35254;47.990;-1.608;2023-05-02T12:32:15;20.70;61.80
49379;DHT22;35254;47.990;-1.608;2023-05-02T12:34:51;20.70;61.80
49379;DHT22;35254;47.990;-1.608;2023-05-02T12:37:21;20.70;61.80
49379;DHT22;35254;47.990;-1.608;2023-05-02T12:39:48;20.70;61.80
49379;DHT22;35254;47.990;-1.608;2023-05-02T12:42:16;20.70;61.90
49379;DHT22;35254;47.990;-1.608;2023-05-02T12:44:43;20.70;62.00
49379;DHT22;35254;47.990;-1.608;2023-05-02T12:47:11;20.70;62.10
49379;DHT22;35254;47.990;-1.608;2023-05-02T12:49:55;20.70;62.10
49379;DHT22;35254;47.990;-1.608;2023-05-02T12:52:50;20.70;62.20
49379;DHT22;35254;47.990;-1.608;2023-05-02T12:55:24;20.70;62.30
49379;DHT22;35254;47.990;-1.608;2023-05-02T12:57:58;20.70;62.90
49379;DHT22;35254;47.990;-1.608;2023-05-02T13:00:24;20.70;63.10
49379;DHT22;35254;47.990;-1.608;2023-05-02T13:02:49;20.70;63.10
49379;DHT22;35254;47.990;-1.608;2023-05-02T13:05:19;20.70;63.50
49379;DHT22;35254;47.990;-1.608;2023-05-02T13:07:45;20.70;63.40
49379;DHT22;35254;47.990;-1.608;2023-05-02T13:10:10;20.70;63.30
49379;DHT22;35254;47.990;-1.608;2023-05-02T13:12:42;20.70;63.00
49379;DHT22;35254;47.990;-1.608;2023-05-02T13:15:08;20.70;62.90
49379;DHT22;35254;47.990;-1.608;2023-05-02T13:17:34;20.70;62.90
49379;DHT22;35254;47.990;-1.608;2023-05-02T13:20:00;20.70;62.90
49379;DHT22;35254;47.990;-1.608;2023-05-02T13:22:26;20.70;62.90
49379;DHT22;35254;47.990;-1.608;2023-05-02T13:24:52;20.70;63.00
49379;DHT22;35254;47.990;-1.608;2023-05-02T13:27:20;20.70;63.00
49379;DHT22;35254;47.990;-1.608;2023-05-02T13:29:48;20.70;63.00
49379;DHT22;35254;47.990;-1.608;2023-05-02T13:32:14;20.80;62.80
49379;DHT22;35254;47.990;-1.608;2023-05-02T13:34:41;20.70;62.70
49379;DHT22;35254;47.990;-1.608;2023-05-02T13:37:07;20.80;62.60
49379;DHT22;35254;47.990;-1.608;2023-05-02T13:39:32;20.80;62.50
49379;DHT22;35254;47.990;-1.608;2023-05-02T13:41:58;20.80;62.50
49379;DHT22;35254;47.990;-1.608;2023-05-02T13:44:24;20.80;62.60
49379;DHT22;35254;47.990;-1.608;2023-05-02T13:46:49;20.80;62.60
49379;DHT22;35254;47.990;-1.608;2023-05-02T13:49:15;20.90;62.50
49379;DHT22;35254;47.990;-1.608;2023-05-02T13:51:41;20.80;62.50
49379;DHT22;35254;47.990;-1.608;2023-05-02T13:54:06;20.80;62.50
49379;DHT22;35254;47.990;-1.608;2023-05-02T13:56:32;20.90;63.00
49379;DHT22;35254;47.990;-1.608;2023-05-02T13:58:57;20.90;62.80
49379;DHT22;35254;47.990;-1.608;2023-05-02T14:01:23;20.90;62.80
49379;DHT22;35254;47.990;-1.608;2023-05-02T14:03:52;20.90;62.80
49379;DHT22;35254;47.990;-1.608;2023-05-02T14:06:18;20.90;62.80
49379;DHT22;35254;47.990;-1.608;2023-05-02T14:08:44;20.90;62.90
49379;DHT22;35254;47.990;-1.608;2023-05-02T14:11:10;20.90;63.10
49379;DHT22;35254;47.990;-1.608;2023-05-02T14:13:36;20.90;63.20
49379;DHT22;35254;47.990;-1.608;2023-05-02T14:16:02;20.90;63.30
49379;DHT22;35254;47.990;-1.608;2023-05-02T14:18:27;20.90;63.40
49379;DHT22;35254;47.990;-1.608;2023-05-02T14:20:53;20.90;63.50
49379;DHT22;35254;47.990;-1.608;2023-05-02T14:23:22;20.90;63.50
49379;DHT22;35254;47.990;-1.608;2023-05-02T14:25:47;20.90;63.60
49379;DHT22;35254;47.990;-1.608;2023-05-02T14:28:13;20.90;63.60
49379;DHT22;35254;47.990;-1.608;2023-05-02T14:30:38;20.90;63.90
49379;DHT22;35254;47.990;-1.608;2023-05-02T14:33:05;20.90;63.70
49379;DHT22;35254;47.990;-1.608;2023-05-02T14:35:30;20.90;63.80
49379;DHT22;35254;47.990;-1.608;2023-05-02T14:37:56;20.90;63.70
49379;DHT22;35254;47.990;-1.608;2023-05-02T14:40:21;20.90;63.70
49379;DHT22;35254;47.990;-1.608;2023-05-02T14:42:47;20.90;63.70
49379;DHT22;35254;47.990;-1.608;2023-05-02T14:45:13;21.00;63.60
49379;DHT22;35254;47.990;-1.608;2023-05-02T14:47:38;20.90;63.60
49379;DHT22;35254;47.990;-1.608;2023-05-02T14:50:04;21.00;63.60
49379;DHT22;35254;47.990;-1.608;2023-05-02T14:52:30;21.00;63.50
49379;DHT22;35254;47.990;-1.608;2023-05-02T14:55:00;21.00;63.50
49379;DHT22;35254;47.990;-1.608;2023-05-02T14:57:25;21.00;63.50
49379;DHT22;35254;47.990;-1.608;2023-05-02T14:59:52;21.00;63.60
49379;DHT22;35254;47.990;-1.608;2023-05-02T15:02:17;21.00;63.60
49379;DHT22;35254;47.990;-1.608;2023-05-02T15:04:43;21.00;63.60
49379;DHT22;35254;47.990;-1.608;2023-05-02T15:07:08;21.00;63.50
49379;DHT22;35254;47.990;-1.608;2023-05-02T15:09:34;21.00;63.40
49379;DHT22;35254;47.990;-1.608;2023-05-02T15:12:00;21.00;63.30
49379;DHT22;35254;47.990;-1.608;2023-05-02T15:14:27;21.00;63.20
49379;DHT22;35254;47.990;-1.608;2023-05-02T15:16:53;21.00;63.10
49379;DHT22;35254;47.990;-1.608;2023-05-02T15:19:19;21.10;63.10
49379;DHT22;35254;47.990;-1.608;2023-05-02T15:21:47;21.10;63.00
49379;DHT22;35254;47.990;-1.608;2023-05-02T15:24:14;21.10;62.90
49379;DHT22;35254;47.990;-1.608;2023-05-02T15:26:40;21.10;62.80
49379;DHT22;35254;47.990;-1.608;2023-05-02T15:29:06;21.10;62.70
49379;DHT22;35254;47.990;-1.608;2023-05-02T15:31:31;21.10;62.60
49379;DHT22;35254;47.990;-1.608;2023-05-02T15:33:58;21.10;62.70
49379;DHT22;35254;47.990;-1.608;2023-05-02T15:36:27;21.10;62.60
49379;DHT22;35254;47.990;-1.608;2023-05-02T15:38:56;21.10;62.50
49379;DHT22;35254;47.990;-1.608;2023-05-02T15:41:24;21.20;62.20
49379;DHT22;35254;47.990;-1.608;2023-05-02T15:43:52;21.20;62.10
49379;DHT22;35254;47.990;-1.608;2023-05-02T15:46:18;21.20;62.00
49379;DHT22;35254;47.990;-1.608;2023-05-02T15:48:44;21.20;61.90
49379;DHT22;35254;47.990;-1.608;2023-05-02T15:51:09;21.20;62.00
49379;DHT22;35254;47.990;-1.608;2023-05-02T15:53:36;21.20;61.80
49379;DHT22;35254;47.990;-1.608;2023-05-02T15:56:07;21.20;61.70
49379;DHT22;35254;47.990;-1.608;2023-05-02T15:58:33;21.20;61.80
49379;DHT22;35254;47.990;-1.608;2023-05-02T16:00:59;21.20;61.80
49379;DHT22;35254;47.990;-1.608;2023-05-02T16:03:25;21.20;61.80
49379;DHT22;35254;47.990;-1.608;2023-05-02T16:05:54;21.20;61.70
49379;DHT22;35254;47.990;-1.608;2023-05-02T16:08:20;21.20;61.70
49379;DHT22;35254;47.990;-1.608;2023-05-02T16:10:46;21.20;61.80
49379;DHT22;35254;47.990;-1.608;2023-05-02T16:13:12;21.20;61.70
49379;DHT22;35254;47.990;-1.608;2023-05-02T16:15:38;21.20;61.80